sensor_id;sensor_type;location;lat;lon;timestamp;P1;durP1;ratioP1;P2;durP2;ratioP2
54428;SDS011;40337;52.978;6.310;2022-08-11T00:00:07;7.10;;;4.78;;
54428;SDS011;40337;52.978;6.310;2022-08-11T00:02:47;6.88;;;5.40;;
54428;SDS011;40337;52.978;6.310;2022-08-11T00:05:16;6.05;;;5.30;;
54428;SDS011;40337;52.978;6.310;2022-08-11T00:07:50;7.28;;;5.28;;
54428;SDS011;40337;52.978;6.310;2022-08-11T00:10:20;7.95;;;5.93;;
54428;SDS011;40337;52.978;6.310;2022-08-11T00:12:58;6.53;;;5.63;;
54428;SDS011;40337;52.978;6.310;2022-08-11T00:15:36;7.07;;;5.35;;
54428;SDS011;40337;52.978;6.310;2022-08-11T00:18:07;7.82;;;5.43;;
54428;SDS011;40337;52.978;6.310;2022-08-11T00:20:35;6.28;;;5.38;;
54428;SDS011;40337;52.978;6.310;2022-08-11T00:23:05;7.05;;;5.63;;
54428;SDS011;40337;52.978;6.310;2022-08-11T00:25:37;7.25;;;5.75;;
54428;SDS011;40337;52.978;6.310;2022-08-11T00:28:22;6.75;;;5.47;;
54428;SDS011;40337;52.978;6.310;2022-08-11T00:30:53;6.60;;;5.40;;
54428;SDS011;40337;52.978;6.310;2022-08-11T00:33:21;6.90;;;5.75;;
54428;SDS011;40337;52.978;6.310;2022-08-11T00:38:23;7.43;;;5.70;;
54428;SDS011;40337;52.978;6.310;2022-08-11T01:06:26;8.05;;;5.72;;
54428;SDS011;40337;52.978;6.310;2022-08-11T01:08:42;8.02;;;6.80;;
54428;SDS011;40337;52.978;6.310;2022-08-11T01:11:24;6.95;;;6.25;;
54428;SDS011;40337;52.978;6.310;2022-08-11T01:16:47;8.32;;;7.15;;
54428;SDS011;40337;52.978;6.310;2022-08-11T01:25:00;8.63;;;6.93;;
54428;SDS011;40337;52.978;6.310;2022-08-11T01:33:52;9.60;;;8.00;;
54428;SDS011;40337;52.978;6.310;2022-08-11T01:36:52;8.45;;;7.65;;
54428;SDS011;40337;52.978;6.310;2022-08-11T01:51:29;11.43;;;10.15;;
54428;SDS011;40337;52.978;6.310;2022-08-11T01:56:46;11.00;;;9.80;;
54428;SDS011;40337;52.978;6.310;2022-08-11T02:05:26;11.23;;;10.13;;
54428;SDS011;40337;52.978;6.310;2022-08-11T02:10:46;11.13;;;10.02;;
54428;SDS011;40337;52.978;6.310;2022-08-11T02:13:58;11.45;;;10.32;;
54428;SDS011;40337;52.978;6.310;2022-08-11T02:25:20;11.63;;;10.43;;
54428;SDS011;40337;52.978;6.310;2022-08-11T02:28:00;11.95;;;10.35;;
54428;SDS011;40337;52.978;6.310;2022-08-11T02:30:57;12.68;;;10.80;;
54428;SDS011;40337;52.978;6.310;2022-08-11T02:50:48;11.80;;;10.60;;
54428;SDS011;40337;52.978;6.310;2022-08-11T02:53:39;11.05;;;9.95;;
54428;SDS011;40337;52.978;6.310;2022-08-11T02:59:48;11.57;;;10.48;;
54428;SDS011;40337;52.978;6.310;2022-08-11T03:04:59;11.52;;;10.30;;
54428;SDS011;40337;52.978;6.310;2022-08-11T03:13:37;12.02;;;10.48;;
54428;SDS011;40337;52.978;6.310;2022-08-11T03:16:36;11.35;;;10.25;;
54428;SDS011;40337;52.978;6.310;2022-08-11T03:22:48;12.57;;;11.05;;
54428;SDS011;40337;52.978;6.310;2022-08-11T03:28:00;11.68;;;10.52;;
54428;SDS011;40337;52.978;6.310;2022-08-11T03:33:16;10.75;;;9.70;;
54428;SDS011;40337;52.978;6.310;2022-08-11T03:36:17;10.82;;;9.73;;
54428;SDS011;40337;52.978;6.310;2022-08-11T03:41:44;13.88;;;10.60;;
54428;SDS011;40337;52.978;6.310;2022-08-11T03:47:20;11.65;;;10.20;;
54428;SDS011;40337;52.978;6.310;2022-08-11T04:01:07;11.68;;;10.32;;
54428;SDS011;40337;52.978;6.310;2022-08-11T04:06:43;11.30;;;10.20;;
54428;SDS011;40337;52.978;6.310;2022-08-11T04:09:44;11.38;;;10.00;;
54428;SDS011;40337;52.978;6.310;2022-08-11T04:18:29;13.90;;;10.38;;
54428;SDS011;40337;52.978;6.310;2022-08-11T04:24:17;13.00;;;11.40;;
54428;SDS011;40337;52.978;6.310;2022-08-11T04:41:32;11.77;;;10.57;;
54428;SDS011;40337;52.978;6.310;2022-08-11T04:50:43;11.73;;;10.57;;
54428;SDS011;40337;52.978;6.310;2022-08-11T04:56:33;12.95;;;11.63;;
54428;SDS011;40337;52.978;6.310;2022-08-11T05:02:39;12.93;;;11.63;;
54428;SDS011;40337;52.978;6.310;2022-08-11T05:08:28;12.38;;;11.15;;
54428;SDS011;40337;52.978;6.310;2022-08-11T05:16:57;13.23;;;11.82;;
54428;SDS011;40337;52.978;6.310;2022-08-11T05:19:46;15.20;;;12.38;;
54428;SDS011;40337;52.978;6.310;2022-08-11T05:22:31;13.63;;;12.23;;
54428;SDS011;40337;52.978;6.310;2022-08-11T05:25:17;13.38;;;12.05;;
54428;SDS011;40337;52.978;6.310;2022-08-11T05:28:09;14.50;;;13.00;;
54428;SDS011;40337;52.978;6.310;2022-08-11T05:31:00;13.57;;;11.98;;
54428;SDS011;40337;52.978;6.310;2022-08-11T05:33:51;14.02;;;12.07;;
54428;SDS011;40337;52.978;6.310;2022-08-11T05:39:30;13.38;;;11.98;;
54428;SDS011;40337;52.978;6.310;2022-08-11T05:42:22;14.77;;;13.18;;
54428;SDS011;40337;52.978;6.310;2022-08-11T05:45:12;14.80;;;12.50;;
54428;SDS011;40337;52.978;6.310;2022-08-11T05:47:58;13.68;;;12.32;;
54428;SDS011;40337;52.978;6.310;2022-08-11T05:50:49;14.10;;;12.48;;
54428;SDS011;40337;52.978;6.310;2022-08-11T05:53:47;13.23;;;11.88;;
54428;SDS011;40337;52.978;6.310;2022-08-11T05:56:39;14.02;;;12.48;;
54428;SDS011;40337;52.978;6.310;2022-08-11T05:59:16;14.15;;;12.65;;
54428;SDS011;40337;52.978;6.310;2022-08-11T06:01:43;15.18;;;13.57;;
54428;SDS011;40337;52.978;6.310;2022-08-11T06:04:15;14.95;;;13.15;;
54428;SDS011;40337;52.978;6.310;2022-08-11T06:06:48;14.38;;;12.38;;
54428;SDS011;40337;52.978;6.310;2022-08-11T06:09:22;15.33;;;13.10;;
54428;SDS011;40337;52.978;6.310;2022-08-11T06:11:48;14.07;;;12.57;;
54428;SDS011;40337;52.978;6.310;2022-08-11T06:14:15;15.43;;;13.75;;
54428;SDS011;40337;52.978;6.310;2022-08-11T06:16:41;13.80;;;12.35;;
54428;SDS011;40337;52.978;6.310;2022-08-11T06:19:11;16.23;;;13.48;;
54428;SDS011;40337;52.978;6.310;2022-08-11T06:21:42;16.45;;;12.82;;
54428;SDS011;40337;52.978;6.310;2022-08-11T06:24:09;15.18;;;13.57;;
54428;SDS011;40337;52.978;6.310;2022-08-11T06:26:37;14.98;;;12.95;;
54428;SDS011;40337;52.978;6.310;2022-08-11T06:29:05;13.85;;;12.32;;
54428;SDS011;40337;52.978;6.310;2022-08-11T06:31:32;13.63;;;12.23;;
54428;SDS011;40337;52.978;6.310;2022-08-11T06:36:54;12.48;;;11.18;;
54428;SDS011;40337;52.978;6.310;2022-08-11T06:42:12;13.20;;;11.27;;
54428;SDS011;40337;52.978;6.310;2022-08-11T06:44:41;16.48;;;11.02;;
54428;SDS011;40337;52.978;6.310;2022-08-11T06:47:10;13.32;;;11.93;;
54428;SDS011;40337;52.978;6.310;2022-08-11T06:49:43;12.50;;;10.57;;
54428;SDS011;40337;52.978;6.310;2022-08-11T06:52:35;12.10;;;9.43;;
54428;SDS011;40337;52.978;6.310;2022-08-11T06:55:06;15.55;;;10.18;;
54428;SDS011;40337;52.978;6.310;2022-08-11T06:57:36;9.88;;;8.38;;
54428;SDS011;40337;52.978;6.310;2022-08-11T07:00:21;11.90;;;8.70;;
54428;SDS011;40337;52.978;6.310;2022-08-11T07:08:34;10.70;;;8.57;;
54428;SDS011;40337;52.978;6.310;2022-08-11T07:11:52;8.98;;;7.68;;
54428;SDS011;40337;52.978;6.310;2022-08-11T07:14:46;8.18;;;7.25;;
54428;SDS011;40337;52.978;6.310;2022-08-11T07:17:37;9.23;;;7.22;;
54428;SDS011;40337;52.978;6.310;2022-08-11T07:20:35;9.10;;;7.07;;
54428;SDS011;40337;52.978;6.310;2022-08-11T07:23:22;9.25;;;6.53;;
54428;SDS011;40337;52.978;6.310;2022-08-11T07:26:06;8.10;;;6.18;;
54428;SDS011;40337;52.978;6.310;2022-08-11T07:28:52;7.75;;;6.20;;
54428;SDS011;40337;52.978;6.310;2022-08-11T07:31:36;8.63;;;5.35;;
54428;SDS011;40337;52.978;6.310;2022-08-11T07:34:12;9.65;;;5.88;;
54428;SDS011;40337;52.978;6.310;2022-08-11T07:36:49;6.60;;;5.28;;
54428;SDS011;40337;52.978;6.310;2022-08-11T07:39:29;8.00;;;4.72;;
54428;SDS011;40337;52.978;6.310;2022-08-11T07:41:57;7.35;;;4.18;;
54428;SDS011;40337;52.978;6.310;2022-08-11T07:44:24;5.63;;;4.07;;
54428;SDS011;40337;52.978;6.310;2022-08-11T07:46:53;4.47;;;3.22;;
54428;SDS011;40337;52.978;6.310;2022-08-11T07:49:39;8.02;;;3.30;;
54428;SDS011;40337;52.978;6.310;2022-08-11T07:52:27;5.18;;;3.20;;
54428;SDS011;40337;52.978;6.310;2022-08-11T07:57:36;5.05;;;2.95;;
54428;SDS011;40337;52.978;6.310;2022-08-11T08:03:06;4.60;;;2.75;;
54428;SDS011;40337;52.978;6.310;2022-08-11T08:05:51;4.72;;;2.53;;
54428;SDS011;40337;52.978;6.310;2022-08-11T08:08:36;6.43;;;2.58;;
54428;SDS011;40337;52.978;6.310;2022-08-11T08:11:22;5.05;;;2.55;;
54428;SDS011;40337;52.978;6.310;2022-08-11T08:14:08;5.28;;;2.40;;
54428;SDS011;40337;52.978;6.310;2022-08-11T08:16:52;4.00;;;2.20;;
54428;SDS011;40337;52.978;6.310;2022-08-11T08:19:38;5.55;;;2.45;;
54428;SDS011;40337;52.978;6.310;2022-08-11T08:22:09;4.30;;;2.65;;
54428;SDS011;40337;52.978;6.310;2022-08-11T08:24:36;4.70;;;2.08;;
54428;SDS011;40337;52.978;6.310;2022-08-11T08:27:03;4.53;;;2.10;;
54428;SDS011;40337;52.978;6.310;2022-08-11T08:29:33;6.68;;;2.10;;
54428;SDS011;40337;52.978;6.310;2022-08-11T08:32:19;3.72;;;2.08;;
54428;SDS011;40337;52.978;6.310;2022-08-11T08:34:48;5.85;;;2.10;;
54428;SDS011;40337;52.978;6.310;2022-08-11T08:37:17;3.85;;;1.85;;
54428;SDS011;40337;52.978;6.310;2022-08-11T08:39:44;3.88;;;2.10;;
54428;SDS011;40337;52.978;6.310;2022-08-11T08:42:11;4.03;;;2.00;;
54428;SDS011;40337;52.978;6.310;2022-08-11T08:44:42;5.65;;;2.00;;
54428;SDS011;40337;52.978;6.310;2022-08-11T08:47:15;3.95;;;2.00;;
54428;SDS011;40337;52.978;6.310;2022-08-11T08:49:47;3.83;;;1.85;;
54428;SDS011;40337;52.978;6.310;2022-08-11T08:52:18;3.03;;;1.90;;
54428;SDS011;40337;52.978;6.310;2022-08-11T08:54:47;3.08;;;1.80;;
54428;SDS011;40337;52.978;6.310;2022-08-11T08:57:18;4.13;;;1.90;;
54428;SDS011;40337;52.978;6.310;2022-08-11T08:59:47;4.68;;;1.90;;
54428;SDS011;40337;52.978;6.310;2022-08-11T09:02:14;3.75;;;2.10;;
54428;SDS011;40337;52.978;6.310;2022-08-11T09:04:43;5.40;;;1.95;;
54428;SDS011;40337;52.978;6.310;2022-08-11T09:07:10;5.15;;;2.10;;
54428;SDS011;40337;52.978;6.310;2022-08-11T09:09:42;3.47;;;2.00;;
54428;SDS011;40337;52.978;6.310;2022-08-11T09:12:10;5.30;;;1.95;;
54428;SDS011;40337;52.978;6.310;2022-08-11T09:14:38;2.97;;;1.88;;
54428;SDS011;40337;52.978;6.310;2022-08-11T09:17:27;3.35;;;1.80;;
54428;SDS011;40337;52.978;6.310;2022-08-11T09:20:10;5.20;;;1.88;;
54428;SDS011;40337;52.978;6.310;2022-08-11T09:22:42;4.22;;;1.70;;
54428;SDS011;40337;52.978;6.310;2022-08-11T09:25:29;5.50;;;2.05;;
54428;SDS011;40337;52.978;6.310;2022-08-11T09:28:15;3.60;;;1.75;;
54428;SDS011;40337;52.978;6.310;2022-08-11T09:30:42;4.32;;;1.80;;
54428;SDS011;40337;52.978;6.310;2022-08-11T09:33:10;4.15;;;1.70;;
54428;SDS011;40337;52.978;6.310;2022-08-11T09:35:39;2.65;;;1.80;;
54428;SDS011;40337;52.978;6.310;2022-08-11T09:38:10;4.07;;;1.95;;
54428;SDS011;40337;52.978;6.310;2022-08-11T09:40:56;3.22;;;1.90;;
54428;SDS011;40337;52.978;6.310;2022-08-11T09:43:24;7.13;;;1.70;;
54428;SDS011;40337;52.978;6.310;2022-08-11T09:46:11;4.05;;;1.90;;
54428;SDS011;40337;52.978;6.310;2022-08-11T09:48:38;4.07;;;1.83;;
54428;SDS011;40337;52.978;6.310;2022-08-11T09:51:06;3.97;;;1.70;;
54428;SDS011;40337;52.978;6.310;2022-08-11T09:53:34;3.45;;;1.95;;
54428;SDS011;40337;52.978;6.310;2022-08-11T09:56:02;4.78;;;2.03;;
54428;SDS011;40337;52.978;6.310;2022-08-11T09:58:49;3.72;;;1.90;;
54428;SDS011;40337;52.978;6.310;2022-08-11T10:01:16;4.25;;;2.00;;
54428;SDS011;40337;52.978;6.310;2022-08-11T10:03:57;3.55;;;1.70;;
54428;SDS011;40337;52.978;6.310;2022-08-11T10:06:44;5.03;;;1.95;;
54428;SDS011;40337;52.978;6.310;2022-08-11T10:09:26;4.60;;;1.92;;
54428;SDS011;40337;52.978;6.310;2022-08-11T10:14:51;4.78;;;1.77;;
54428;SDS011;40337;52.978;6.310;2022-08-11T10:17:38;3.67;;;1.80;;
54428;SDS011;40337;52.978;6.310;2022-08-11T10:20:31;5.85;;;1.77;;
54428;SDS011;40337;52.978;6.310;2022-08-11T10:22:58;4.43;;;1.85;;
54428;SDS011;40337;52.978;6.310;2022-08-11T10:25:44;3.20;;;1.83;;
54428;SDS011;40337;52.978;6.310;2022-08-11T10:28:29;3.50;;;1.90;;
54428;SDS011;40337;52.978;6.310;2022-08-11T10:31:05;4.00;;;1.70;;
54428;SDS011;40337;52.978;6.310;2022-08-11T10:34:10;4.07;;;1.80;;
54428;SDS011;40337;52.978;6.310;2022-08-11T10:36:37;4.93;;;1.70;;
54428;SDS011;40337;52.978;6.310;2022-08-11T10:39:12;3.70;;;1.88;;
54428;SDS011;40337;52.978;6.310;2022-08-11T10:41:41;4.78;;;1.95;;
54428;SDS011;40337;52.978;6.310;2022-08-11T10:44:34;3.75;;;2.05;;
54428;SDS011;40337;52.978;6.310;2022-08-11T10:47:05;4.15;;;2.00;;
54428;SDS011;40337;52.978;6.310;2022-08-11T10:49:53;3.28;;;1.77;;
54428;SDS011;40337;52.978;6.310;2022-08-11T10:52:38;4.32;;;2.00;;
54428;SDS011;40337;52.978;6.310;2022-08-11T10:55:23;4.45;;;1.80;;
54428;SDS011;40337;52.978;6.310;2022-08-11T10:58:09;4.00;;;1.95;;
54428;SDS011;40337;52.978;6.310;2022-08-11T11:00:54;3.85;;;2.03;;
54428;SDS011;40337;52.978;6.310;2022-08-11T11:03:26;4.55;;;1.95;;
54428;SDS011;40337;52.978;6.310;2022-08-11T11:08:50;3.67;;;1.70;;
54428;SDS011;40337;52.978;6.310;2022-08-11T11:11:29;3.88;;;1.80;;
54428;SDS011;40337;52.978;6.310;2022-08-11T11:14:17;3.60;;;2.00;;
54428;SDS011;40337;52.978;6.310;2022-08-11T11:17:04;4.07;;;1.80;;
54428;SDS011;40337;52.978;6.310;2022-08-11T11:19:37;3.43;;;1.83;;
54428;SDS011;40337;52.978;6.310;2022-08-11T11:22:04;5.13;;;1.88;;
54428;SDS011;40337;52.978;6.310;2022-08-11T11:27:58;3.50;;;1.83;;
54428;SDS011;40337;52.978;6.310;2022-08-11T11:30:43;3.03;;;1.70;;
54428;SDS011;40337;52.978;6.310;2022-08-11T11:35:55;4.30;;;1.80;;
54428;SDS011;40337;52.978;6.310;2022-08-11T11:38:31;3.42;;;1.83;;
54428;SDS011;40337;52.978;6.310;2022-08-11T11:40:57;4.28;;;1.80;;
54428;SDS011;40337;52.978;6.310;2022-08-11T11:43:41;3.90;;;1.52;;
54428;SDS011;40337;52.978;6.310;2022-08-11T11:46:09;4.00;;;1.70;;
54428;SDS011;40337;52.978;6.310;2022-08-11T11:48:35;5.97;;;1.60;;
54428;SDS011;40337;52.978;6.310;2022-08-11T11:51:01;3.47;;;1.60;;
54428;SDS011;40337;52.978;6.310;2022-08-11T11:53:27;4.40;;;1.80;;
54428;SDS011;40337;52.978;6.310;2022-08-11T11:55:53;3.05;;;1.63;;
54428;SDS011;40337;52.978;6.310;2022-08-11T11:58:20;4.13;;;1.80;;
54428;SDS011;40337;52.978;6.310;2022-08-11T12:01:05;4.32;;;1.55;;
54428;SDS011;40337;52.978;6.310;2022-08-11T12:03:40;4.05;;;1.50;;
54428;SDS011;40337;52.978;6.310;2022-08-11T12:06:10;3.40;;;1.67;;
54428;SDS011;40337;52.978;6.310;2022-08-11T12:08:38;3.08;;;1.70;;
54428;SDS011;40337;52.978;6.310;2022-08-11T12:11:05;3.05;;;1.73;;
54428;SDS011;40337;52.978;6.310;2022-08-11T12:13:52;3.35;;;1.50;;
54428;SDS011;40337;52.978;6.310;2022-08-11T12:16:21;2.22;;;1.42;;
54428;SDS011;40337;52.978;6.310;2022-08-11T12:18:52;4.03;;;1.55;;
54428;SDS011;40337;52.978;6.310;2022-08-11T12:21:20;4.57;;;1.60;;
54428;SDS011;40337;52.978;6.310;2022-08-11T12:23:48;2.45;;;1.52;;
54428;SDS011;40337;52.978;6.310;2022-08-11T12:26:33;3.83;;;1.60;;
54428;SDS011;40337;52.978;6.310;2022-08-11T12:29:18;2.78;;;1.48;;
54428;SDS011;40337;52.978;6.310;2022-08-11T12:31:45;2.45;;;1.45;;
54428;SDS011;40337;52.978;6.310;2022-08-11T12:34:13;3.85;;;1.60;;
54428;SDS011;40337;52.978;6.310;2022-08-11T12:36:58;3.58;;;1.35;;
54428;SDS011;40337;52.978;6.310;2022-08-11T12:39:33;4.32;;;1.50;;
54428;SDS011;40337;52.978;6.310;2022-08-11T12:42:20;2.53;;;1.40;;
54428;SDS011;40337;52.978;6.310;2022-08-11T12:45:07;2.63;;;1.30;;
54428;SDS011;40337;52.978;6.310;2022-08-11T12:48:09;2.65;;;1.50;;
54428;SDS011;40337;52.978;6.310;2022-08-11T12:51:02;2.08;;;1.35;;
54428;SDS011;40337;52.978;6.310;2022-08-11T12:54:01;5.75;;;1.70;;
54428;SDS011;40337;52.978;6.310;2022-08-11T12:56:35;3.53;;;1.58;;
54428;SDS011;40337;52.978;6.310;2022-08-11T12:59:22;3.47;;;1.50;;
54428;SDS011;40337;52.978;6.310;2022-08-11T13:02:11;4.18;;;1.40;;
54428;SDS011;40337;52.978;6.310;2022-08-11T13:05:02;3.45;;;1.50;;
54428;SDS011;40337;52.978;6.310;2022-08-11T13:07:30;2.30;;;1.30;;
54428;SDS011;40337;52.978;6.310;2022-08-11T13:09:57;3.08;;;1.50;;
54428;SDS011;40337;52.978;6.310;2022-08-11T13:12:29;4.68;;;1.50;;
54428;SDS011;40337;52.978;6.310;2022-08-11T13:15:18;2.63;;;1.40;;
54428;SDS011;40337;52.978;6.310;2022-08-11T13:17:45;2.95;;;1.55;;
54428;SDS011;40337;52.978;6.310;2022-08-11T13:20:14;3.25;;;1.48;;
54428;SDS011;40337;52.978;6.310;2022-08-11T13:22:44;2.67;;;1.38;;
54428;SDS011;40337;52.978;6.310;2022-08-11T13:25:14;3.10;;;1.42;;
54428;SDS011;40337;52.978;6.310;2022-08-11T13:27:42;3.20;;;1.20;;
54428;SDS011;40337;52.978;6.310;2022-08-11T13:30:10;2.28;;;1.40;;
54428;SDS011;40337;52.978;6.310;2022-08-11T13:32:56;5.60;;;1.20;;
54428;SDS011;40337;52.978;6.310;2022-08-11T13:35:23;3.55;;;1.65;;
54428;SDS011;40337;52.978;6.310;2022-08-11T13:37:51;2.33;;;1.48;;
54428;SDS011;40337;52.978;6.310;2022-08-11T13:40:19;3.40;;;1.35;;
54428;SDS011;40337;52.978;6.310;2022-08-11T13:42:45;2.58;;;1.50;;
54428;SDS011;40337;52.978;6.310;2022-08-11T13:45:13;3.38;;;1.50;;
54428;SDS011;40337;52.978;6.310;2022-08-11T13:47:39;2.40;;;1.40;;
54428;SDS011;40337;52.978;6.310;2022-08-11T13:50:06;2.47;;;1.55;;
54428;SDS011;40337;52.978;6.310;2022-08-11T13:52:32;4.32;;;1.42;;
54428;SDS011;40337;52.978;6.310;2022-08-11T13:55:00;3.47;;;1.50;;
54428;SDS011;40337;52.978;6.310;2022-08-11T13:57:29;4.00;;;1.50;;
54428;SDS011;40337;52.978;6.310;2022-08-11T13:59:57;2.75;;;1.33;;
54428;SDS011;40337;52.978;6.310;2022-08-11T14:02:34;2.35;;;1.40;;
54428;SDS011;40337;52.978;6.310;2022-08-11T14:07:35;4.57;;;1.60;;
54428;SDS011;40337;52.978;6.310;2022-08-11T14:10:03;3.10;;;1.40;;
54428;SDS011;40337;52.978;6.310;2022-08-11T14:12:32;4.57;;;1.38;;
54428;SDS011;40337;52.978;6.310;2022-08-11T14:15:20;1.50;;;1.20;;
54428;SDS011;40337;52.978;6.310;2022-08-11T14:18:05;3.03;;;1.70;;
54428;SDS011;40337;52.978;6.310;2022-08-11T14:20:36;3.40;;;1.40;;
54428;SDS011;40337;52.978;6.310;2022-08-11T14:23:30;4.03;;;1.38;;
54428;SDS011;40337;52.978;6.310;2022-08-11T14:26:04;2.90;;;1.35;;
54428;SDS011;40337;52.978;6.310;2022-08-11T14:29:00;2.25;;;1.40;;
54428;SDS011;40337;52.978;6.310;2022-08-11T14:31:31;3.28;;;1.63;;
54428;SDS011;40337;52.978;6.310;2022-08-11T14:34:03;3.60;;;1.33;;
54428;SDS011;40337;52.978;6.310;2022-08-11T14:36:35;4.75;;;1.50;;
54428;SDS011;40337;52.978;6.310;2022-08-11T14:39:09;2.10;;;1.40;;
54428;SDS011;40337;52.978;6.310;2022-08-11T14:41:38;2.60;;;1.40;;
54428;SDS011;40337;52.978;6.310;2022-08-11T14:44:25;1.92;;;1.27;;
54428;SDS011;40337;52.978;6.310;2022-08-11T14:47:10;2.90;;;1.40;;
54428;SDS011;40337;52.978;6.310;2022-08-11T14:49:39;4.05;;;1.30;;
54428;SDS011;40337;52.978;6.310;2022-08-11T14:52:07;4.88;;;1.50;;
54428;SDS011;40337;52.978;6.310;2022-08-11T14:54:45;3.40;;;1.35;;
54428;SDS011;40337;52.978;6.310;2022-08-11T14:57:35;3.67;;;1.50;;
54428;SDS011;40337;52.978;6.310;2022-08-11T15:00:03;20.05;;;2.03;;
54428;SDS011;40337;52.978;6.310;2022-08-11T15:02:37;3.47;;;1.45;;
54428;SDS011;40337;52.978;6.310;2022-08-11T15:05:22;5.82;;;1.42;;
54428;SDS011;40337;52.978;6.310;2022-08-11T15:07:50;2.85;;;1.42;;
54428;SDS011;40337;52.978;6.310;2022-08-11T15:10:17;2.47;;;1.50;;
54428;SDS011;40337;52.978;6.310;2022-08-11T15:12:43;3.40;;;1.60;;
54428;SDS011;40337;52.978;6.310;2022-08-11T15:15:10;2.22;;;1.42;;
54428;SDS011;40337;52.978;6.310;2022-08-11T15:17:56;2.25;;;1.30;;
54428;SDS011;40337;52.978;6.310;2022-08-11T15:20:24;2.42;;;1.40;;
54428;SDS011;40337;52.978;6.310;2022-08-11T15:23:10;3.33;;;1.50;;
54428;SDS011;40337;52.978;6.310;2022-08-11T15:25:56;2.75;;;1.30;;
54428;SDS011;40337;52.978;6.310;2022-08-11T15:28:33;3.17;;;1.40;;
54428;SDS011;40337;52.978;6.310;2022-08-11T15:31:20;3.53;;;1.60;;
54428;SDS011;40337;52.978;6.310;2022-08-11T15:33:53;2.72;;;1.50;;
54428;SDS011;40337;52.978;6.310;2022-08-11T15:36:40;5.45;;;1.55;;
54428;SDS011;40337;52.978;6.310;2022-08-11T15:39:27;3.58;;;1.52;;
54428;SDS011;40337;52.978;6.310;2022-08-11T15:42:05;8.93;;;1.50;;
54428;SDS011;40337;52.978;6.310;2022-08-11T15:44:55;4.95;;;1.50;;
54428;SDS011;40337;52.978;6.310;2022-08-11T15:47:51;2.38;;;1.42;;
54428;SDS011;40337;52.978;6.310;2022-08-11T15:50:27;4.97;;;1.60;;
54428;SDS011;40337;52.978;6.310;2022-08-11T15:53:02;4.07;;;1.60;;
54428;SDS011;40337;52.978;6.310;2022-08-11T15:55:31;2.42;;;1.40;;
54428;SDS011;40337;52.978;6.310;2022-08-11T15:58:01;3.13;;;1.40;;
54428;SDS011;40337;52.978;6.310;2022-08-11T16:00:47;3.78;;;1.40;;
54428;SDS011;40337;52.978;6.310;2022-08-11T16:03:43;5.82;;;1.60;;
54428;SDS011;40337;52.978;6.310;2022-08-11T16:06:31;6.22;;;1.85;;
54428;SDS011;40337;52.978;6.310;2022-08-11T16:08:59;3.20;;;1.70;;
54428;SDS011;40337;52.978;6.310;2022-08-11T16:11:30;4.60;;;1.75;;
54428;SDS011;40337;52.978;6.310;2022-08-11T16:13:59;4.07;;;1.60;;
54428;SDS011;40337;52.978;6.310;2022-08-11T16:16:48;3.22;;;1.55;;
54428;SDS011;40337;52.978;6.310;2022-08-11T16:19:15;4.90;;;1.70;;
54428;SDS011;40337;52.978;6.310;2022-08-11T16:21:42;4.68;;;1.60;;
54428;SDS011;40337;52.978;6.310;2022-08-11T16:24:10;8.05;;;1.77;;
54428;SDS011;40337;52.978;6.310;2022-08-11T16:26:40;10.45;;;2.10;;
54428;SDS011;40337;52.978;6.310;2022-08-11T16:29:07;6.68;;;1.75;;
54428;SDS011;40337;52.978;6.310;2022-08-11T16:31:35;4.43;;;1.60;;
54428;SDS011;40337;52.978;6.310;2022-08-11T16:34:02;3.75;;;1.60;;
54428;SDS011;40337;52.978;6.310;2022-08-11T16:36:29;2.83;;;1.40;;
54428;SDS011;40337;52.978;6.310;2022-08-11T16:39:14;4.82;;;2.10;;
54428;SDS011;40337;52.978;6.310;2022-08-11T16:41:42;5.03;;;1.50;;
54428;SDS011;40337;52.978;6.310;2022-08-11T16:44:28;3.35;;;1.40;;
54428;SDS011;40337;52.978;6.310;2022-08-11T16:47:14;5.95;;;1.60;;
54428;SDS011;40337;52.978;6.310;2022-08-11T16:49:47;5.82;;;1.60;;
54428;SDS011;40337;52.978;6.310;2022-08-11T16:52:15;2.92;;;1.40;;
54428;SDS011;40337;52.978;6.310;2022-08-11T16:54:41;6.63;;;1.70;;
54428;SDS011;40337;52.978;6.310;2022-08-11T16:57:09;5.05;;;1.48;;
54428;SDS011;40337;52.978;6.310;2022-08-11T16:59:57;4.82;;;1.60;;
54428;SDS011;40337;52.978;6.310;2022-08-11T17:02:34;4.57;;;1.50;;
54428;SDS011;40337;52.978;6.310;2022-08-11T17:05:23;3.45;;;1.50;;
54428;SDS011;40337;52.978;6.310;2022-08-11T17:08:08;6.10;;;1.80;;
54428;SDS011;40337;52.978;6.310;2022-08-11T17:10:56;12.30;;;1.90;;
54428;SDS011;40337;52.978;6.310;2022-08-11T17:13:44;5.78;;;1.70;;
54428;SDS011;40337;52.978;6.310;2022-08-11T17:16:15;4.90;;;1.73;;
54428;SDS011;40337;52.978;6.310;2022-08-11T17:18:58;4.85;;;1.80;;
54428;SDS011;40337;52.978;6.310;2022-08-11T17:21:35;3.72;;;1.70;;
54428;SDS011;40337;52.978;6.310;2022-08-11T17:24:24;4.22;;;1.95;;
54428;SDS011;40337;52.978;6.310;2022-08-11T17:26:51;4.85;;;1.90;;
54428;SDS011;40337;52.978;6.310;2022-08-11T17:29:31;6.97;;;1.90;;
54428;SDS011;40337;52.978;6.310;2022-08-11T17:31:58;3.78;;;1.85;;
54428;SDS011;40337;52.978;6.310;2022-08-11T17:34:44;7.55;;;1.92;;
54428;SDS011;40337;52.978;6.310;2022-08-11T17:37:31;4.07;;;1.90;;
54428;SDS011;40337;52.978;6.310;2022-08-11T17:39:59;4.05;;;1.88;;
54428;SDS011;40337;52.978;6.310;2022-08-11T17:42:29;5.70;;;2.10;;
54428;SDS011;40337;52.978;6.310;2022-08-11T17:45:19;3.05;;;1.60;;
54428;SDS011;40337;52.978;6.310;2022-08-11T17:48:04;3.75;;;1.70;;
54428;SDS011;40337;52.978;6.310;2022-08-11T17:50:50;5.55;;;1.80;;
54428;SDS011;40337;52.978;6.310;2022-08-11T17:53:18;7.88;;;2.00;;
54428;SDS011;40337;52.978;6.310;2022-08-11T17:56:03;7.78;;;1.95;;
54428;SDS011;40337;52.978;6.310;2022-08-11T17:58:48;4.00;;;1.88;;
54428;SDS011;40337;52.978;6.310;2022-08-11T18:01:34;5.75;;;1.73;;
54428;SDS011;40337;52.978;6.310;2022-08-11T18:04:03;5.65;;;2.00;;
54428;SDS011;40337;52.978;6.310;2022-08-11T18:06:30;4.57;;;1.80;;
54428;SDS011;40337;52.978;6.310;2022-08-11T18:08:58;5.05;;;1.90;;
54428;SDS011;40337;52.978;6.310;2022-08-11T18:11:43;5.00;;;1.70;;
54428;SDS011;40337;52.978;6.310;2022-08-11T18:14:29;5.25;;;1.80;;
54428;SDS011;40337;52.978;6.310;2022-08-11T18:17:15;5.72;;;1.83;;
54428;SDS011;40337;52.978;6.310;2022-08-11T18:19:59;4.47;;;1.92;;
54428;SDS011;40337;52.978;6.310;2022-08-11T18:22:44;3.90;;;1.88;;
54428;SDS011;40337;52.978;6.310;2022-08-11T18:25:34;2.83;;;1.70;;
54428;SDS011;40337;52.978;6.310;2022-08-11T18:28:23;4.38;;;1.80;;
54428;SDS011;40337;52.978;6.310;2022-08-11T18:31:11;7.13;;;2.00;;
54428;SDS011;40337;52.978;6.310;2022-08-11T18:34:00;3.83;;;1.80;;
54428;SDS011;40337;52.978;6.310;2022-08-11T18:36:51;3.17;;;1.60;;
54428;SDS011;40337;52.978;6.310;2022-08-11T18:40:03;3.20;;;1.60;;
54428;SDS011;40337;52.978;6.310;2022-08-11T18:42:50;4.57;;;1.85;;
54428;SDS011;40337;52.978;6.310;2022-08-11T18:45:38;4.90;;;1.75;;
54428;SDS011;40337;52.978;6.310;2022-08-11T18:48:24;4.05;;;1.80;;
54428;SDS011;40337;52.978;6.310;2022-08-11T18:51:12;5.43;;;1.90;;
54428;SDS011;40337;52.978;6.310;2022-08-11T18:53:59;3.97;;;1.98;;
54428;SDS011;40337;52.978;6.310;2022-08-11T18:56:47;4.55;;;1.90;;
54428;SDS011;40337;52.978;6.310;2022-08-11T18:59:34;2.70;;;1.80;;
54428;SDS011;40337;52.978;6.310;2022-08-11T19:02:22;5.45;;;1.90;;
54428;SDS011;40337;52.978;6.310;2022-08-11T19:05:07;5.00;;;1.70;;
54428;SDS011;40337;52.978;6.310;2022-08-11T19:07:54;2.72;;;1.73;;
54428;SDS011;40337;52.978;6.310;2022-08-11T19:10:40;3.53;;;1.80;;
54428;SDS011;40337;52.978;6.310;2022-08-11T19:13:27;4.97;;;1.92;;
54428;SDS011;40337;52.978;6.310;2022-08-11T19:16:13;3.25;;;1.85;;
54428;SDS011;40337;52.978;6.310;2022-08-11T19:18:59;4.85;;;2.10;;